createdAt,value
2018-12-30T00:00:40.393Z,2.20
2018-12-30T00:03:09.449Z,2.20
2018-12-30T00:05:38.381Z,2.05
2018-12-30T00:08:06.553Z,1.90
2018-12-30T00:10:35.541Z,1.90
2018-12-30T00:13:03.985Z,1.80
2018-12-30T00:15:33.942Z,1.90
2018-12-30T00:18:02.833Z,1.70
2018-12-30T00:20:30.913Z,1.60
2018-12-30T00:22:59.081Z,1.60
2018-12-30T00:25:27.571Z,1.80
2018-12-30T00:27:56.210Z,1.80
2018-12-30T00:30:24.556Z,1.60
2018-12-30T00:32:52.713Z,1.70
2018-12-30T00:35:20.834Z,2.00
2018-12-30T00:37:49.331Z,2.00
2018-12-30T00:40:17.901Z,1.90
2018-12-30T00:42:46.525Z,1.70
2018-12-30T00:45:15.213Z,2.10
2018-12-30T00:47:43.485Z,1.90
2018-12-30T00:50:12.091Z,2.20
2018-12-30T00:52:40.606Z,1.70
2018-12-30T00:55:09.446Z,1.90
2018-12-30T00:57:37.714Z,1.90
2018-12-30T01:00:06.569Z,2.00
2018-12-30T01:02:34.681Z,1.90
2018-12-30T01:05:03.233Z,1.90
2018-12-30T01:07:32.105Z,2.10
2018-12-30T01:10:00.821Z,1.90
2018-12-30T01:12:29.575Z,2.00
2018-12-30T01:14:57.714Z,1.90
2018-12-30T01:17:28.209Z,2.00
2018-12-30T01:19:56.617Z,2.10
2018-12-30T01:22:25.163Z,2.10
2018-12-30T01:24:53.582Z,1.90
2018-12-30T01:27:21.645Z,1.70
2018-12-30T01:29:49.777Z,1.80
2018-12-30T01:32:18.107Z,1.75
2018-12-30T01:34:46.546Z,1.40
2018-12-30T01:37:15.542Z,1.60
2018-12-30T01:39:43.710Z,1.30
2018-12-30T01:42:12.136Z,1.40
2018-12-30T01:44:40.751Z,1.00
2018-12-30T01:47:09.013Z,1.10
2018-12-30T01:49:37.350Z,1.00
2018-12-30T01:52:05.709Z,1.00
2018-12-30T01:54:33.966Z,0.90
2018-12-30T01:57:02.474Z,1.00
2018-12-30T01:59:30.851Z,2.50
2018-12-30T02:01:58.997Z,1.30
2018-12-30T02:04:27.667Z,0.80
2018-12-30T02:06:55.713Z,0.60
2018-12-30T02:09:23.742Z,0.70
2018-12-30T02:11:52.121Z,0.70
2018-12-30T02:14:21.954Z,0.80
2018-12-30T02:16:50.571Z,0.60
2018-12-30T02:19:19.581Z,0.50
2018-12-30T02:21:47.938Z,0.60
2018-12-30T02:24:16.387Z,0.80
2018-12-30T02:26:44.937Z,1.00
2018-12-30T02:29:13.748Z,1.10
2018-12-30T02:31:41.762Z,1.30
2018-12-30T02:34:10.453Z,1.12
2018-12-30T02:36:38.915Z,1.20
2018-12-30T02:39:07.319Z,1.30
2018-12-30T02:41:35.490Z,1.10
2018-12-30T02:44:04.179Z,0.90
2018-12-30T02:46:32.250Z,0.80
2018-12-30T02:49:00.328Z,0.90
2018-12-30T02:51:28.530Z,1.05
2018-12-30T02:53:58.510Z,1.00
2018-12-30T02:56:26.605Z,1.00
2018-12-30T02:58:54.861Z,1.20
2018-12-30T03:01:23.374Z,1.10
2018-12-30T03:03:51.535Z,1.20
2018-12-30T03:06:20.165Z,1.70
2018-12-30T03:08:48.377Z,1.50
2018-12-30T03:11:16.573Z,1.45
2018-12-30T03:13:45.098Z,1.57
2018-12-30T03:16:13.517Z,1.20
2018-12-30T03:18:42.103Z,1.10
2018-12-30T03:21:12.039Z,1.30
2018-12-30T03:23:40.861Z,1.10
2018-12-30T03:26:10.417Z,1.10
2018-12-30T03:28:39.019Z,1.30
2018-12-30T03:31:07.347Z,1.20
2018-12-30T03:33:35.830Z,1.00
2018-12-30T03:36:04.547Z,1.00
2018-12-30T03:38:32.614Z,1.15
2018-12-30T03:41:01.282Z,1.00
2018-12-30T03:43:30.186Z,1.07
2018-12-30T03:45:59.070Z,1.20
2018-12-30T03:48:27.854Z,1.10
2018-12-30T03:50:56.553Z,1.15
2018-12-30T03:53:25.433Z,1.10
2018-12-30T03:55:53.452Z,1.00
2018-12-30T03:58:21.614Z,1.93
2018-12-30T04:00:49.770Z,2.80
2018-12-30T04:03:18.414Z,1.30
2018-12-30T04:05:46.735Z,1.40
2018-12-30T04:08:15.585Z,1.40
2018-12-30T04:10:44.285Z,1.40
2018-12-30T04:13:12.488Z,1.50
2018-12-30T04:15:40.558Z,1.50
2018-12-30T04:18:08.669Z,1.60
2018-12-30T04:20:37.547Z,1.37
2018-12-30T04:23:05.698Z,1.60
2018-12-30T04:25:33.934Z,1.30
2018-12-30T04:28:02.047Z,1.00
2018-12-30T04:30:30.685Z,1.20
2018-12-30T04:32:58.813Z,1.05
2018-12-30T04:35:27.001Z,1.00
2018-12-30T04:37:55.174Z,1.10
2018-12-30T04:40:23.296Z,2.37
2018-12-30T04:42:51.662Z,3.75
2018-12-30T04:45:19.798Z,0.90
2018-12-30T04:47:48.058Z,1.00
2018-12-30T04:50:18.116Z,0.93
2018-12-30T04:52:46.251Z,0.80
2018-12-30T04:55:14.449Z,1.92
2018-12-30T04:57:42.600Z,1.00
2018-12-30T05:00:11.052Z,0.70
2018-12-30T05:02:39.621Z,0.80
2018-12-30T05:05:09.595Z,0.90
2018-12-30T05:07:38.112Z,1.00
2018-12-30T05:10:06.349Z,1.70
2018-12-30T05:12:35.350Z,0.80
2018-12-30T05:15:03.421Z,0.90
2018-12-30T05:17:31.594Z,0.90
2018-12-30T05:19:59.646Z,1.10
2018-12-30T05:22:33.805Z,0.70
2018-12-30T05:24:57.964Z,1.00
2018-12-30T05:27:26.221Z,0.90
2018-12-30T05:29:54.698Z,1.40
2018-12-30T05:32:22.906Z,0.98
2018-12-30T05:34:51.461Z,0.90
2018-12-30T05:37:20.051Z,1.40
2018-12-30T05:39:48.751Z,1.30
2018-12-30T05:42:16.857Z,1.30
2018-12-30T05:44:46.574Z,1.27
2018-12-30T05:47:15.169Z,1.50
2018-12-30T05:49:43.641Z,1.20
2018-12-30T05:52:12.549Z,1.20
2018-12-30T05:54:40.642Z,1.30
2018-12-30T05:57:09.102Z,1.30
2018-12-30T05:59:38.755Z,1.40
2018-12-30T06:02:06.796Z,1.70
2018-12-30T06:04:34.825Z,3.20
2018-12-30T06:07:04.681Z,2.10
2018-12-30T06:09:33.398Z,1.80
2018-12-30T06:12:01.575Z,1.40
2018-12-30T06:14:29.897Z,1.60
2018-12-30T06:16:58.126Z,3.20
2018-12-30T06:19:26.298Z,2.30
2018-12-30T06:21:54.821Z,1.30
2018-12-30T06:24:23.309Z,2.05
2018-12-30T06:26:51.523Z,1.70
2018-12-30T06:29:20.170Z,1.90
2018-12-30T06:31:48.546Z,1.80
2018-12-30T06:34:16.657Z,1.92
2018-12-30T06:36:45.205Z,2.45
2018-12-30T06:39:13.282Z,2.58
2018-12-30T06:41:41.494Z,2.40
2018-12-30T06:44:09.931Z,2.50
2018-12-30T06:46:38.173Z,1.90
2018-12-30T06:49:06.239Z,2.33
2018-12-30T06:51:34.351Z,2.30
2018-12-30T06:54:02.484Z,2.27
2018-12-30T06:56:30.697Z,2.62
2018-12-30T06:59:00.047Z,2.42
2018-12-30T07:01:28.907Z,1.50
2018-12-30T07:03:57.354Z,2.60
2018-12-30T07:06:26.001Z,2.70
2018-12-30T07:08:54.825Z,2.80
2018-12-30T07:11:22.958Z,4.17
2018-12-30T07:13:51.668Z,4.22
2018-12-30T07:16:19.822Z,2.20
2018-12-30T07:18:48.467Z,2.40
2018-12-30T07:21:16.889Z,2.00
2018-12-30T07:23:45.389Z,2.20
2018-12-30T07:26:13.515Z,1.98
2018-12-30T07:28:43.409Z,2.40
2018-12-30T07:31:12.065Z,2.02
2018-12-30T07:33:40.138Z,1.92
2018-12-30T07:36:08.970Z,2.27
2018-12-30T07:38:37.550Z,2.25
2018-12-30T07:41:06.069Z,2.92
2018-12-30T07:43:34.519Z,2.90
2018-12-30T07:46:03.345Z,2.83
2018-12-30T07:48:31.362Z,3.80
2018-12-30T07:51:00.023Z,3.30
2018-12-30T07:53:28.447Z,2.45
2018-12-30T07:55:56.663Z,2.90
2018-12-30T07:58:25.563Z,2.30
2018-12-30T08:00:54.194Z,2.90
2018-12-30T08:03:22.861Z,2.75
2018-12-30T08:05:50.893Z,1.77
2018-12-30T08:08:18.965Z,2.60
2018-12-30T08:10:47.094Z,2.80
2018-12-30T08:13:55.013Z,2.70
2018-12-30T08:16:23.133Z,2.52
2018-12-30T08:18:51.293Z,2.10
2018-12-30T08:21:19.782Z,2.30
2018-12-30T08:23:48.338Z,1.90
2018-12-30T08:26:16.853Z,1.65
2018-12-30T08:28:45.616Z,1.80
2018-12-30T08:31:14.119Z,2.20
2018-12-30T08:33:42.153Z,2.80
2018-12-30T08:36:10.666Z,1.90
2018-12-30T08:38:39.054Z,2.00
2018-12-30T08:41:07.238Z,1.70
2018-12-30T08:43:36.261Z,1.90
2018-12-30T08:46:04.880Z,2.10
2018-12-30T08:48:33.077Z,1.95
2018-12-30T08:51:01.150Z,2.25
2018-12-30T08:53:29.748Z,1.90
2018-12-30T08:55:58.181Z,1.57
2018-12-30T08:58:27.777Z,1.90
2018-12-30T09:00:55.930Z,1.95
2018-12-30T09:03:25.221Z,3.60
2018-12-30T09:05:53.389Z,3.08
2018-12-30T09:08:22.095Z,8.88
2018-12-30T09:10:50.189Z,9.70
2018-12-30T09:13:18.894Z,3.70
2018-12-30T09:15:47.055Z,2.40
2018-12-30T09:18:15.179Z,2.60
2018-12-30T09:20:43.737Z,2.10
2018-12-30T09:23:12.049Z,1.92
2018-12-30T09:25:41.729Z,1.60
2018-12-30T09:28:10.026Z,1.60
2018-12-30T09:30:39.783Z,1.90
2018-12-30T09:33:08.186Z,8.05
2018-12-30T09:35:36.835Z,2.95
2018-12-30T09:38:06.085Z,3.25
2018-12-30T09:40:34.791Z,1.60
2018-12-30T09:43:03.049Z,1.77
2018-12-30T09:45:31.504Z,1.50
2018-12-30T09:48:00.106Z,1.60
2018-12-30T09:50:28.670Z,1.90
2018-12-30T09:52:56.821Z,2.10
2018-12-30T09:55:25.063Z,1.90
2018-12-30T09:57:53.117Z,1.90
2018-12-30T10:00:21.278Z,1.90
2018-12-30T10:02:49.486Z,1.98
2018-12-30T10:05:18.010Z,2.12
2018-12-30T10:07:46.127Z,1.92
2018-12-30T10:10:14.166Z,2.00
2018-12-30T10:12:42.796Z,2.30
2018-12-30T10:15:10.839Z,2.10
2018-12-30T10:17:39.173Z,2.75
2018-12-30T10:20:07.930Z,3.17
2018-12-30T10:22:36.357Z,2.73
2018-12-30T10:25:04.942Z,1.80
2018-12-30T10:27:33.538Z,2.10
2018-12-30T10:30:02.104Z,2.45
2018-12-30T10:32:30.345Z,2.08
2018-12-30T10:34:59.471Z,2.20
2018-12-30T10:37:27.706Z,2.20
2018-12-30T10:39:55.974Z,2.00
2018-12-30T10:42:24.154Z,2.60
2018-12-30T10:44:52.226Z,2.30
2018-12-30T10:47:20.663Z,2.47
2018-12-30T10:49:48.710Z,2.80
2018-12-30T10:52:17.215Z,3.00
2018-12-30T10:54:47.513Z,2.60
2018-12-30T10:57:15.767Z,2.52
2018-12-30T10:59:43.859Z,2.90
2018-12-30T11:02:12.437Z,2.55
2018-12-30T11:04:42.660Z,2.47
2018-12-30T11:07:11.149Z,2.60
2018-12-30T11:09:39.824Z,2.70
2018-12-30T11:12:07.882Z,2.62
2018-12-30T11:14:35.955Z,2.65
2018-12-30T11:17:06.725Z,2.92
2018-12-30T11:19:34.455Z,3.65
2018-12-30T11:22:02.587Z,3.35
2018-12-30T11:24:32.363Z,2.30
2018-12-30T11:27:01.026Z,2.40
2018-12-30T11:29:29.145Z,2.58
2018-12-30T11:31:57.448Z,2.80
2018-12-30T11:34:26.370Z,2.70
2018-12-30T11:36:55.226Z,3.30
2018-12-30T11:39:23.329Z,3.12
2018-12-30T11:41:51.354Z,2.67
2018-12-30T11:44:19.417Z,3.30
2018-12-30T11:46:48.021Z,3.47
2018-12-30T11:49:17.976Z,3.12
2018-12-30T11:51:46.630Z,3.02
2018-12-30T11:54:16.909Z,3.00
2018-12-30T11:56:45.024Z,2.92
2018-12-30T11:59:13.235Z,2.90
2018-12-30T12:01:41.830Z,2.80
2018-12-30T12:04:10.296Z,2.80
2018-12-30T12:06:39.351Z,3.08
2018-12-30T12:09:08.134Z,2.83
2018-12-30T12:11:36.618Z,3.00
2018-12-30T12:14:05.250Z,3.20
2018-12-30T12:16:34.053Z,3.40
2018-12-30T12:19:02.222Z,3.20
2018-12-30T12:21:31.154Z,3.80
2018-12-30T12:23:59.747Z,3.25
2018-12-30T12:26:28.637Z,3.90
2018-12-30T12:28:58.550Z,2.95
2018-12-30T12:31:26.601Z,3.05
2018-12-30T12:33:55.221Z,3.08
2018-12-30T12:36:23.833Z,2.80
2018-12-30T12:38:52.041Z,3.15
2018-12-30T12:41:20.144Z,3.20
2018-12-30T12:43:48.282Z,3.30
2018-12-30T12:46:16.735Z,2.95
2018-12-30T12:48:44.907Z,3.10
2018-12-30T12:51:13.034Z,3.15
2018-12-30T12:53:43.428Z,3.10
2018-12-30T12:56:11.943Z,3.05
2018-12-30T12:58:40.066Z,3.05
2018-12-30T13:01:08.509Z,3.33
2018-12-30T13:03:37.010Z,3.30
2018-12-30T13:06:05.573Z,3.12
2018-12-30T13:08:33.717Z,4.12
2018-12-30T13:11:01.820Z,2.90
2018-12-30T13:13:30.154Z,2.80
2018-12-30T13:16:03.355Z,2.77
2018-12-30T13:18:28.737Z,2.98
2018-12-30T13:20:56.957Z,3.20
2018-12-30T13:23:25.035Z,2.80
2018-12-30T13:25:55.213Z,2.53
2018-12-30T13:28:24.321Z,3.33
2018-12-30T13:30:52.307Z,2.50
2018-12-30T13:33:21.031Z,2.55
2018-12-30T13:35:50.126Z,2.77
2018-12-30T13:38:18.186Z,2.45
2018-12-30T13:40:46.795Z,2.75
2018-12-30T13:43:14.914Z,2.60
2018-12-30T13:45:45.274Z,2.50
2018-12-30T13:48:13.427Z,3.00
2018-12-30T13:50:42.089Z,3.00
2018-12-30T13:53:10.162Z,3.62
2018-12-30T13:55:38.889Z,5.05
2018-12-30T13:58:07.485Z,2.50
2018-12-30T14:00:36.387Z,2.98
2018-12-30T14:03:04.790Z,2.92
2018-12-30T14:05:33.274Z,4.08
2018-12-30T14:08:01.821Z,2.87
2018-12-30T14:10:29.926Z,2.70
2018-12-30T14:12:58.569Z,2.40
2018-12-30T14:15:26.804Z,2.70
2018-12-30T14:17:54.806Z,2.80
2018-12-30T14:20:22.934Z,2.70
2018-12-30T14:22:51.530Z,2.60
2018-12-30T14:25:21.458Z,2.50
2018-12-30T14:27:49.918Z,2.40
2018-12-30T14:30:18.069Z,2.70
2018-12-30T14:32:46.166Z,3.20
2018-12-30T14:35:15.200Z,2.90
2018-12-30T14:37:43.422Z,3.13
2018-12-30T14:40:11.902Z,3.00
2018-12-30T14:42:39.974Z,2.85
2018-12-30T14:45:08.379Z,2.90
2018-12-30T14:47:36.908Z,2.65
2018-12-30T14:50:05.951Z,2.70
2018-12-30T14:52:34.158Z,2.83
2018-12-30T14:55:03.912Z,3.10
2018-12-30T14:57:32.778Z,3.02
2018-12-30T15:00:00.996Z,2.70
2018-12-30T15:02:31.791Z,3.30
2018-12-30T15:05:00.274Z,3.40
2018-12-30T15:07:28.883Z,3.40
2018-12-30T15:09:56.974Z,4.40
2018-12-30T15:12:25.690Z,6.12
2018-12-30T15:14:53.830Z,3.70
2018-12-30T15:17:21.998Z,3.80
2018-12-30T15:19:50.130Z,3.47
2018-12-30T15:22:18.357Z,3.22
2018-12-30T15:24:46.574Z,2.95
2018-12-30T15:27:15.118Z,2.83
2018-12-30T15:29:43.754Z,2.70
2018-12-30T15:32:12.069Z,2.80
2018-12-30T15:34:40.470Z,2.98
2018-12-30T15:37:08.623Z,2.95
2018-12-30T15:39:36.782Z,2.80
2018-12-30T15:42:05.146Z,2.77
2018-12-30T15:44:33.966Z,3.12
2018-12-30T15:47:02.463Z,3.00
2018-12-30T15:49:30.563Z,3.10
2018-12-30T15:51:58.609Z,3.25
2018-12-30T15:54:26.649Z,2.92
2018-12-30T15:56:54.685Z,3.17
2018-12-30T15:59:23.651Z,3.40
2018-12-30T16:01:51.841Z,3.10
2018-12-30T16:04:20.178Z,2.85
2018-12-30T16:06:48.824Z,3.30
2018-12-30T16:09:17.436Z,3.50
2018-12-30T16:11:45.898Z,3.90
2018-12-30T16:14:16.237Z,3.40
2018-12-30T16:16:44.203Z,3.17
2018-12-30T16:19:12.430Z,3.27
2018-12-30T16:21:40.509Z,3.30
2018-12-30T16:24:09.022Z,3.40
2018-12-30T16:26:37.497Z,3.00
2018-12-30T16:29:06.032Z,3.20
2018-12-30T16:31:34.833Z,7.28
2018-12-30T16:34:02.947Z,10.25
2018-12-30T16:36:31.474Z,4.70
2018-12-30T16:38:59.725Z,3.83
2018-12-30T16:41:27.746Z,3.57
2018-12-30T16:43:56.333Z,3.25
2018-12-30T16:46:26.873Z,3.05
2018-12-30T16:48:54.772Z,3.50
2018-12-30T16:51:24.439Z,5.30
2018-12-30T16:53:53.545Z,3.80
2018-12-30T16:56:22.251Z,3.80
2018-12-30T16:58:50.725Z,5.20
2018-12-30T17:01:19.166Z,4.08
2018-12-30T17:03:48.088Z,5.10
2018-12-30T17:06:16.137Z,4.00
2018-12-30T17:08:44.661Z,5.30
2018-12-30T17:11:12.878Z,3.30
2018-12-30T17:13:41.788Z,5.47
2018-12-30T17:16:10.617Z,6.65
2018-12-30T17:18:39.245Z,4.50
2018-12-30T17:21:07.931Z,3.52
2018-12-30T17:23:36.295Z,3.80
2018-12-30T17:26:05.884Z,3.72
2018-12-30T17:28:35.696Z,4.70
2018-12-30T17:31:03.833Z,8.73
2018-12-30T17:33:32.081Z,4.55
2018-12-30T17:36:00.784Z,5.33
2018-12-30T17:38:30.382Z,4.60
2018-12-30T17:41:01.593Z,4.33
2018-12-30T17:43:29.302Z,5.25
2018-12-30T17:45:58.075Z,4.75
2018-12-30T17:48:26.800Z,4.22
2018-12-30T17:50:55.360Z,5.20
2018-12-30T17:53:23.627Z,4.95
2018-12-30T17:55:52.034Z,4.72
2018-12-30T17:58:20.584Z,5.17
2018-12-30T18:00:48.921Z,4.87
2018-12-30T18:03:17.242Z,5.05
2018-12-30T18:05:45.345Z,5.00
2018-12-30T18:08:13.503Z,4.40
2018-12-30T18:10:41.686Z,5.67
2018-12-30T18:13:11.261Z,5.22
2018-12-30T18:15:39.601Z,4.63
2018-12-30T18:18:07.725Z,5.60
2018-12-30T18:20:36.063Z,6.60
2018-12-30T18:23:04.494Z,5.92
2018-12-30T18:25:33.856Z,4.90
2018-12-30T18:28:02.370Z,5.22
2018-12-30T18:30:30.537Z,4.60
2018-12-30T18:32:58.611Z,5.67
2018-12-30T18:35:26.641Z,5.33
2018-12-30T18:37:54.819Z,4.45
2018-12-30T18:40:23.037Z,5.40
2018-12-30T18:42:53.765Z,5.60
2018-12-30T18:45:23.035Z,3.85
2018-12-30T18:47:52.371Z,3.90
2018-12-30T18:50:20.813Z,3.90
2018-12-30T18:52:48.939Z,4.45
2018-12-30T18:55:17.366Z,4.30
2018-12-30T18:57:45.435Z,4.35
2018-12-30T19:00:13.653Z,5.08
2018-12-30T19:02:41.821Z,4.07
2018-12-30T19:05:10.148Z,5.17
2018-12-30T19:07:40.497Z,5.30
2018-12-30T19:10:08.872Z,7.28
2018-12-30T19:12:36.882Z,4.50
2018-12-30T19:15:05.835Z,4.03
2018-12-30T19:17:34.207Z,3.70
2018-12-30T19:20:02.350Z,4.45
2018-12-30T19:22:30.866Z,12.40
2018-12-30T19:24:59.346Z,11.48
2018-12-30T19:27:27.725Z,7.55
2018-12-30T19:29:55.853Z,5.75
2018-12-30T19:32:24.031Z,4.65
2018-12-30T19:34:52.674Z,8.33
2018-12-30T19:37:20.826Z,5.45
2018-12-30T19:39:48.925Z,4.53
2018-12-30T19:42:17.715Z,6.67
2018-12-30T19:44:45.717Z,16.75
2018-12-30T19:47:14.182Z,10.30
2018-12-30T19:49:42.257Z,8.83
2018-12-30T19:52:10.335Z,5.40
2018-12-30T19:54:38.725Z,4.60
2018-12-30T19:57:07.314Z,4.40
2018-12-30T19:59:35.733Z,5.33
2018-12-30T20:02:03.953Z,3.98
2018-12-30T20:04:40.286Z,3.75
2018-12-30T20:07:03.298Z,4.10
2018-12-30T20:09:31.862Z,3.80
2018-12-30T20:12:00.342Z,4.05
2018-12-30T20:14:28.658Z,4.33
2018-12-30T20:16:57.307Z,4.40
2018-12-30T20:19:26.254Z,3.98
2018-12-30T20:21:54.862Z,4.08
2018-12-30T20:24:22.878Z,4.20
2018-12-30T20:26:51.065Z,10.65
2018-12-30T20:29:19.489Z,10.90
2018-12-30T20:31:48.603Z,9.35
2018-12-30T20:34:17.653Z,9.13
2018-12-30T20:36:46.383Z,9.47
2018-12-30T20:39:14.558Z,11.80
2018-12-30T20:41:42.625Z,4.80
2018-12-30T20:44:11.378Z,4.28
2018-12-30T20:46:40.106Z,4.28
2018-12-30T20:49:08.578Z,4.37
2018-12-30T20:51:37.069Z,8.38
2018-12-30T20:54:05.726Z,9.23
2018-12-30T20:56:37.603Z,8.78
2018-12-30T20:59:03.743Z,9.40
2018-12-30T21:01:31.899Z,10.13
2018-12-30T21:04:00.330Z,8.13
2018-12-30T21:06:28.985Z,6.80
2018-12-30T21:08:57.626Z,6.70
2018-12-30T21:11:26.414Z,7.22
2018-12-30T21:13:54.733Z,5.03
2018-12-30T21:16:22.979Z,3.95
2018-12-30T21:18:51.188Z,3.33
2018-12-30T21:21:21.516Z,4.97
2018-12-30T21:23:49.804Z,3.90
2018-12-30T21:26:17.983Z,3.50
2018-12-30T21:28:46.138Z,3.80
2018-12-30T21:31:14.705Z,3.33
2018-12-30T21:33:42.802Z,3.17
2018-12-30T21:36:11.342Z,2.80
2018-12-30T21:38:39.869Z,11.57
2018-12-30T21:41:08.521Z,10.28
2018-12-30T21:43:36.882Z,4.80
2018-12-30T21:46:05.098Z,3.58
2018-12-30T21:48:33.187Z,3.80
2018-12-30T21:51:01.910Z,3.70
2018-12-30T21:53:30.057Z,4.10
2018-12-30T21:55:58.203Z,4.10
2018-12-30T21:58:28.207Z,3.70
2018-12-30T22:00:56.293Z,3.20
2018-12-30T22:03:24.334Z,4.33
2018-12-30T22:05:54.685Z,4.40
2018-12-30T22:08:22.801Z,11.53
2018-12-30T22:10:51.411Z,8.23
2018-12-30T22:13:20.389Z,9.65
2018-12-30T22:15:49.014Z,11.00
2018-12-30T22:18:17.395Z,9.50
2018-12-30T22:20:46.057Z,7.45
2018-12-30T22:23:14.369Z,8.00
2018-12-30T22:25:42.462Z,6.30
2018-12-30T22:28:10.546Z,5.20
2018-12-30T22:30:39.116Z,4.12
2018-12-30T22:33:07.306Z,3.60
2018-12-30T22:35:35.450Z,4.40
2018-12-30T22:38:03.634Z,10.00
2018-12-30T22:40:31.643Z,11.93
2018-12-30T22:42:59.842Z,6.28
2018-12-30T22:45:28.048Z,4.55
2018-12-30T22:47:56.655Z,4.03
2018-12-30T22:50:24.802Z,4.12
2018-12-30T22:52:54.638Z,4.40
2018-12-30T22:55:22.682Z,4.50
2018-12-30T22:57:51.193Z,4.50
2018-12-30T23:00:26.001Z,4.22
2018-12-30T23:02:54.342Z,3.60
2018-12-30T23:05:23.234Z,4.67
2018-12-30T23:07:51.464Z,4.10
2018-12-30T23:10:20.398Z,3.80
2018-12-30T23:12:48.608Z,5.70
2018-12-30T23:15:17.157Z,6.20
2018-12-30T23:17:46.050Z,5.85
2018-12-30T23:20:14.165Z,6.03
2018-12-30T23:22:42.773Z,6.50
2018-12-30T23:25:10.877Z,6.67
2018-12-30T23:27:39.029Z,14.63
2018-12-30T23:30:07.937Z,7.00
2018-12-30T23:32:36.638Z,7.83
2018-12-30T23:35:04.894Z,7.70
2018-12-30T23:37:33.826Z,7.00
2018-12-30T23:40:02.164Z,6.60
2018-12-30T23:42:30.508Z,6.58
2018-12-30T23:44:58.836Z,8.10
2018-12-30T23:47:27.402Z,8.50
2018-12-30T23:49:56.383Z,7.50
2018-12-30T23:52:24.670Z,9.20
2018-12-30T23:54:53.572Z,9.10
2018-12-30T23:57:22.971Z,9.13
2018-12-30T23:59:51.218Z,8.73
